createdAt,value
2019-02-15T00:02:49.720Z,55.84
2019-02-15T00:06:55.151Z,55.59
2019-02-15T00:11:00.282Z,55.42
2019-02-15T00:15:05.665Z,55.61
2019-02-15T00:19:15.991Z,56.33
2019-02-15T00:23:21.155Z,56.37
2019-02-15T00:27:26.724Z,57.53
2019-02-15T00:31:31.818Z,57.84
2019-02-15T00:35:36.906Z,57.70
2019-02-15T00:39:42.987Z,58.20
2019-02-15T00:43:48.229Z,58.66
2019-02-15T00:47:59.191Z,57.76
2019-02-15T00:52:35.321Z,58.52
2019-02-15T00:57:01.586Z,59.11
2019-02-15T01:01:34.822Z,58.69
2019-02-15T01:06:03.153Z,59.08
2019-02-15T01:10:17.934Z,58.71
2019-02-15T01:14:23.095Z,59.11
2019-02-15T01:18:28.248Z,60.12
2019-02-15T01:22:33.361Z,60.42
2019-02-15T01:26:46.680Z,60.92
2019-02-15T01:31:10.843Z,63.09
2019-02-15T01:35:34.970Z,62.11
2019-02-15T01:39:48.252Z,62.97
2019-02-15T01:44:12.362Z,63.91
2019-02-15T01:48:17.471Z,63.57
2019-02-15T01:52:22.563Z,62.32
2019-02-15T01:56:27.612Z,61.27
2019-02-15T02:00:34.712Z,60.17
2019-02-15T02:04:39.789Z,60.62
2019-02-15T02:08:44.979Z,60.94
2019-02-15T02:12:50.181Z,61.12
2019-02-15T02:16:55.515Z,61.71
2019-02-15T02:21:01.638Z,61.41
2019-02-15T02:25:07.000Z,59.93
2019-02-15T02:29:12.160Z,59.49
2019-02-15T02:33:17.299Z,59.71
2019-02-15T02:37:22.420Z,61.18
2019-02-15T02:41:27.604Z,59.91
2019-02-15T02:45:32.710Z,59.99
2019-02-15T02:49:37.925Z,59.54
2019-02-15T02:53:43.039Z,59.82
2019-02-15T02:57:48.233Z,60.56
2019-02-15T03:01:53.551Z,61.28
2019-02-15T03:05:58.787Z,60.79
2019-02-15T03:10:03.973Z,61.02
2019-02-15T03:14:11.792Z,60.80
2019-02-15T03:18:16.309Z,60.20
2019-02-15T03:22:21.418Z,60.65
2019-02-15T03:26:26.603Z,60.45
2019-02-15T03:30:31.745Z,60.37
2019-02-15T03:34:36.894Z,60.87
2019-02-15T03:39:01.082Z,62.59
2019-02-15T03:43:08.297Z,62.32
2019-02-15T03:47:15.070Z,63.08
2019-02-15T03:51:20.153Z,65.01
2019-02-15T03:55:25.370Z,64.91
2019-02-15T03:59:30.614Z,64.11
2019-02-15T04:03:35.739Z,63.58
2019-02-15T04:07:41.193Z,63.92
2019-02-15T04:11:46.388Z,66.16
2019-02-15T04:15:51.585Z,66.33
2019-02-15T04:19:56.756Z,66.19
2019-02-15T04:24:01.873Z,65.37
2019-02-15T04:28:07.041Z,63.47
2019-02-15T04:32:12.232Z,63.75
2019-02-15T04:36:17.341Z,64.90
2019-02-15T04:40:22.415Z,65.93
2019-02-15T04:44:27.538Z,65.57
2019-02-15T04:48:32.587Z,65.60
2019-02-15T04:52:37.989Z,65.08
2019-02-15T04:56:43.065Z,64.77
2019-02-15T05:00:48.260Z,64.51
2019-02-15T05:04:53.408Z,64.66
2019-02-15T05:08:58.558Z,63.40
2019-02-15T05:13:03.676Z,65.31
2019-02-15T05:17:08.835Z,65.76
2019-02-15T05:21:14.045Z,64.34
2019-02-15T05:25:19.122Z,64.36
2019-02-15T05:29:24.372Z,65.19
2019-02-15T05:33:29.560Z,65.46
2019-02-15T05:37:34.783Z,64.22
2019-02-15T05:41:40.872Z,64.23
2019-02-15T05:45:46.952Z,64.44
2019-02-15T05:49:52.349Z,62.75
2019-02-15T05:53:57.437Z,63.20
2019-02-15T05:58:02.703Z,63.38
2019-02-15T06:02:07.838Z,63.48
2019-02-15T06:06:13.246Z,63.27
2019-02-15T06:10:18.488Z,63.33
2019-02-15T06:14:23.643Z,63.35
2019-02-15T06:18:28.778Z,63.19
2019-02-15T06:22:33.857Z,63.54
2019-02-15T06:26:38.970Z,63.29
2019-02-15T06:30:44.177Z,63.38
2019-02-15T06:34:49.662Z,63.87
2019-02-15T06:38:54.756Z,63.91
2019-02-15T06:42:59.841Z,65.57
2019-02-15T06:47:04.975Z,65.27
2019-02-15T06:51:10.148Z,64.82
2019-02-15T06:55:15.290Z,64.80
2019-02-15T06:59:47.315Z,65.36
2019-02-15T07:04:15.477Z,66.35
2019-02-15T07:08:20.618Z,64.79
2019-02-15T07:12:25.737Z,65.51
2019-02-15T07:16:30.806Z,64.31
2019-02-15T07:20:35.867Z,64.05
2019-02-15T07:24:40.913Z,65.18
2019-02-15T07:28:46.116Z,63.99
2019-02-15T07:32:51.332Z,63.42
2019-02-15T07:36:56.428Z,63.23
2019-02-15T07:41:01.587Z,62.26
2019-02-15T07:45:07.432Z,62.36
2019-02-15T07:49:12.666Z,64.03
2019-02-15T07:53:20.104Z,61.98
2019-02-15T07:57:25.196Z,61.83
2019-02-15T08:01:30.288Z,62.13
2019-02-15T08:05:35.461Z,63.11
2019-02-15T08:09:40.564Z,61.56
2019-02-15T08:13:45.661Z,60.44
2019-02-15T08:17:50.909Z,59.93
2019-02-15T08:21:56.063Z,59.63
2019-02-15T08:26:01.207Z,59.32
2019-02-15T08:30:06.815Z,58.32
2019-02-15T08:34:12.014Z,56.75
2019-02-15T08:38:17.192Z,55.97
2019-02-15T08:42:22.416Z,55.37
2019-02-15T08:46:27.573Z,55.49
2019-02-15T08:50:32.682Z,54.62
2019-02-15T08:54:37.789Z,55.35
2019-02-15T08:58:42.915Z,53.62
2019-02-15T09:02:48.067Z,54.22
2019-02-15T09:06:53.220Z,54.03
2019-02-15T09:10:58.327Z,53.33
2019-02-15T09:15:03.491Z,52.34
2019-02-15T09:19:08.629Z,52.58
2019-02-15T09:23:13.716Z,52.93
2019-02-15T09:27:43.912Z,51.43
2019-02-15T09:31:49.067Z,52.45
2019-02-15T09:35:54.184Z,51.92
2019-02-15T09:39:59.311Z,50.92
2019-02-15T09:44:04.410Z,48.64
2019-02-15T09:48:09.596Z,50.27
2019-02-15T09:52:14.675Z,49.21
2019-02-15T09:56:20.796Z,48.44
2019-02-15T10:00:26.010Z,49.15
2019-02-15T10:04:31.402Z,49.20
2019-02-15T10:08:36.532Z,48.88
2019-02-15T10:12:41.682Z,48.01
2019-02-15T10:16:46.865Z,47.51
2019-02-15T10:20:52.032Z,45.55
2019-02-15T10:24:57.170Z,48.13
2019-02-15T10:29:02.295Z,45.46
2019-02-15T10:33:07.376Z,45.32
2019-02-15T10:37:12.455Z,45.49
2019-02-15T10:41:17.548Z,43.99
2019-02-15T10:45:22.636Z,42.62
2019-02-15T10:49:27.973Z,44.56
2019-02-15T10:53:33.085Z,42.68
2019-02-15T10:57:38.265Z,44.33
2019-02-15T11:01:43.369Z,43.30
2019-02-15T11:05:48.543Z,42.97
2019-02-15T11:09:53.610Z,43.52
2019-02-15T11:13:58.743Z,44.47
2019-02-15T11:18:03.902Z,42.21
2019-02-15T11:22:09.138Z,41.85
2019-02-15T11:26:14.298Z,42.79
2019-02-15T11:30:19.413Z,41.42
2019-02-15T11:34:24.608Z,40.11
2019-02-15T11:38:30.675Z,41.85
2019-02-15T11:42:35.793Z,40.48
2019-02-15T11:46:40.871Z,41.63
2019-02-15T11:50:46.014Z,41.19
2019-02-15T11:54:51.239Z,41.23
2019-02-15T11:58:56.684Z,41.03
2019-02-15T12:03:01.832Z,40.76
2019-02-15T12:07:06.943Z,39.46
2019-02-15T12:11:12.336Z,41.59
2019-02-15T12:15:17.819Z,41.12
2019-02-15T12:19:22.944Z,39.87
2019-02-15T12:23:28.648Z,40.71
2019-02-15T12:27:33.776Z,40.61
2019-02-15T12:31:38.982Z,40.27
2019-02-15T12:35:44.203Z,41.08
2019-02-15T12:39:49.397Z,40.56
2019-02-15T12:43:54.624Z,38.67
2019-02-15T12:47:59.749Z,38.31
2019-02-15T12:52:04.847Z,39.71
2019-02-15T12:56:10.466Z,40.12
2019-02-15T13:00:16.022Z,39.39
2019-02-15T13:04:21.241Z,39.58
2019-02-15T13:08:26.466Z,40.12
2019-02-15T13:12:31.599Z,39.74
2019-02-15T13:16:36.680Z,39.44
2019-02-15T13:20:42.871Z,38.38
2019-02-15T13:24:48.064Z,39.90
2019-02-15T13:28:53.376Z,37.03
2019-02-15T13:32:58.738Z,36.47
2019-02-15T13:37:04.010Z,36.31
2019-02-15T13:41:09.230Z,38.10
2019-02-15T13:45:14.523Z,35.62
2019-02-15T13:49:19.712Z,36.85
2019-02-15T13:53:24.985Z,37.56
2019-02-15T13:57:30.371Z,37.95
2019-02-15T14:01:35.758Z,36.70
2019-02-15T14:05:41.213Z,34.16
2019-02-15T14:09:46.439Z,36.61
2019-02-15T14:13:51.603Z,36.21
2019-02-15T14:17:56.834Z,37.26
2019-02-15T14:22:01.937Z,36.32
2019-02-15T14:26:07.110Z,34.04
2019-02-15T14:30:12.341Z,33.04
2019-02-15T14:34:17.463Z,33.12
2019-02-15T14:38:22.719Z,34.96
2019-02-15T14:42:27.819Z,35.81
2019-02-15T14:46:33.282Z,35.85
2019-02-15T14:50:38.708Z,34.29
2019-02-15T14:54:43.850Z,34.38
2019-02-15T14:58:49.047Z,32.89
2019-02-15T15:02:54.117Z,34.38
2019-02-15T15:06:59.322Z,32.65
2019-02-15T15:11:04.457Z,33.48
2019-02-15T15:15:11.645Z,34.86
2019-02-15T15:19:16.835Z,33.79
2019-02-15T15:23:22.013Z,34.96
2019-02-15T15:27:27.191Z,32.05
2019-02-15T15:31:32.382Z,36.26
2019-02-15T15:35:37.809Z,34.78
2019-02-15T15:39:42.990Z,36.25
2019-02-15T15:43:48.249Z,35.46
2019-02-15T15:47:53.308Z,34.98
2019-02-15T15:51:58.838Z,34.91
2019-02-15T15:56:03.934Z,34.63
2019-02-15T16:00:10.501Z,34.63
2019-02-15T16:04:16.636Z,35.70
2019-02-15T16:08:22.344Z,35.20
2019-02-15T16:12:27.545Z,35.07
2019-02-15T16:16:32.676Z,35.55
2019-02-15T16:20:37.850Z,36.84
2019-02-15T16:24:43.319Z,36.92
2019-02-15T16:28:48.447Z,38.19
2019-02-15T16:32:53.637Z,37.98
2019-02-15T16:36:58.813Z,38.66
2019-02-15T16:41:03.906Z,38.81
2019-02-15T16:45:10.605Z,42.67
2019-02-15T16:49:15.741Z,43.26
2019-02-15T16:53:20.929Z,43.52
2019-02-15T16:57:26.151Z,44.22
2019-02-15T17:01:31.340Z,45.05
2019-02-15T17:05:36.424Z,45.62
2019-02-15T17:09:41.527Z,45.95
2019-02-15T17:13:46.602Z,46.46
2019-02-15T17:17:51.749Z,46.68
2019-02-15T17:21:58.911Z,47.92
2019-02-15T17:26:03.998Z,48.16
2019-02-15T17:30:09.826Z,48.59
2019-02-15T17:34:14.955Z,48.15
2019-02-15T17:38:20.056Z,48.11
2019-02-15T17:42:25.163Z,47.71
2019-02-15T17:46:30.363Z,47.59
2019-02-15T17:50:35.490Z,48.40
2019-02-15T17:54:40.618Z,48.72
2019-02-15T17:58:45.797Z,49.10
2019-02-15T18:02:50.883Z,50.84
2019-02-15T18:06:56.083Z,49.78
2019-02-15T18:11:01.261Z,47.38
2019-02-15T18:15:06.521Z,48.38
2019-02-15T18:19:11.662Z,47.79
2019-02-15T18:23:16.821Z,47.81
2019-02-15T18:27:21.929Z,47.68
2019-02-15T18:31:27.098Z,46.71
2019-02-15T18:35:32.225Z,46.63
2019-02-15T18:39:37.372Z,47.33
2019-02-15T18:43:42.538Z,46.56
2019-02-15T18:47:47.665Z,47.32
2019-02-15T18:51:52.856Z,47.06
2019-02-15T18:55:57.994Z,46.19
2019-02-15T19:00:03.070Z,45.50
2019-02-15T19:04:09.768Z,45.31
2019-02-15T19:08:14.895Z,45.85
2019-02-15T19:12:21.831Z,45.82
2019-02-15T19:16:27.023Z,46.43
2019-02-15T19:20:32.130Z,46.20
2019-02-15T19:24:37.238Z,46.84
2019-02-15T19:28:42.413Z,46.48
2019-02-15T19:32:47.510Z,48.24
2019-02-15T19:36:52.597Z,47.11
2019-02-15T19:40:57.778Z,47.56
2019-02-15T19:45:02.990Z,47.35
2019-02-15T19:49:08.086Z,47.56
2019-02-15T19:53:13.228Z,47.53
2019-02-15T19:57:19.225Z,46.94
2019-02-15T20:01:24.445Z,46.94
2019-02-15T20:05:30.826Z,47.28
2019-02-15T20:09:35.992Z,47.79
2019-02-15T20:13:41.385Z,47.32
2019-02-15T20:17:46.499Z,47.65
2019-02-15T20:21:51.640Z,47.87
2019-02-15T20:25:56.754Z,47.73
2019-02-15T20:30:03.476Z,47.79
2019-02-15T20:34:08.639Z,48.23
2019-02-15T20:38:13.763Z,48.31
2019-02-15T20:42:19.017Z,48.47
2019-02-15T20:46:24.070Z,48.96
2019-02-15T20:50:29.249Z,49.00
2019-02-15T20:54:34.390Z,49.00
2019-02-15T20:58:39.567Z,49.39
2019-02-15T21:02:44.648Z,49.80
2019-02-15T21:06:49.821Z,50.41
2019-02-15T21:10:55.685Z,49.64
2019-02-15T21:15:00.833Z,50.36
2019-02-15T21:19:05.923Z,51.03
2019-02-15T21:23:11.039Z,50.70
2019-02-15T21:27:16.333Z,52.29
2019-02-15T21:31:21.391Z,53.68
2019-02-15T21:35:26.483Z,54.51
2019-02-15T21:39:31.560Z,54.51
2019-02-15T21:43:38.814Z,55.29
2019-02-15T21:47:43.652Z,54.65
2019-02-15T21:51:48.782Z,54.65
2019-02-15T21:55:53.979Z,54.44
2019-02-15T21:59:59.408Z,54.92
2019-02-15T22:04:04.582Z,55.27
2019-02-15T22:08:09.743Z,55.15
2019-02-15T22:12:14.837Z,55.05
2019-02-15T22:16:19.905Z,55.33
2019-02-15T22:20:27.213Z,55.11
2019-02-15T22:24:32.604Z,55.06
2019-02-15T22:28:37.722Z,54.67
2019-02-15T22:32:42.958Z,55.10
2019-02-15T22:36:48.091Z,55.78
2019-02-15T22:40:59.855Z,56.22
2019-02-15T22:45:05.109Z,56.66
2019-02-15T22:49:10.302Z,57.01
2019-02-15T22:53:15.460Z,57.10
2019-02-15T22:57:20.618Z,57.07
2019-02-15T23:01:25.739Z,57.04
2019-02-15T23:05:30.923Z,56.36
2019-02-15T23:09:36.051Z,57.31
2019-02-15T23:13:41.236Z,56.81
2019-02-15T23:17:46.448Z,57.33
2019-02-15T23:21:51.503Z,57.24
2019-02-15T23:25:56.571Z,57.23
2019-02-15T23:30:01.669Z,57.21
2019-02-15T23:34:06.843Z,57.24
2019-02-15T23:38:12.000Z,58.12
2019-02-15T23:42:17.049Z,57.62
2019-02-15T23:46:22.134Z,57.08
2019-02-15T23:50:27.250Z,58.25
2019-02-15T23:54:32.669Z,58.15
2019-02-15T23:58:37.829Z,58.11
